< Typhoon 196412 1964 Season Typhoon 196414 >
Typhoon 196413 (JUNE)
General InformationTrack Information on Google Maps || Disaster Info.ResourceGoogle EarthGE AnimationAtom FeedGeoJSON
Detalied Best Track (Time Zone = UTC)
Year Month Day Hour Lat. Long. Pressure (hPa) Wind (kt) Class Image Chart
1964 8 9 00 10.0 143.7 1007 0 2 -- Chart
1964 8 9 06 11.0 141.6 1004 0 2 -- Chart
1964 8 9 12 11.5 139.8 1006 0 2 -- Chart
1964 8 9 18 12.0 138.0 1004 0 2 -- Chart
1964 8 10 00 12.4 136.5 1004 0 2 -- Chart
1964 8 10 06 12.9 135.1 1002 0 2 -- Chart
1964 8 10 12 13.6 133.4 1002 0 2 -- Chart
1964 8 10 18 14.1 132.2 1000 0 2 -- Chart
1964 8 11 00 14.8 130.7 998 0 9 -- Chart
1964 8 11 06 15.5 129.9 998 0 9 -- Chart
1964 8 11 12 16.0 129.0 1000 0 9 -- Chart
1964 8 11 18 17.0 127.5 1000 0 9 -- Chart
1964 8 12 00 17.9 126.4 1000 0 9 -- Chart
1964 8 12 06 18.5 124.5 1002 0 2 -- Chart
1964 8 12 12 19.3 122.1 1002 0 2 -- Chart
1964 8 12 18 19.4 118.3 1003 0 2 -- Chart
1964 8 13 00 19.0 116.7 1004 0 2 -- Chart
1964 8 13 06 19.0 114.4 1004 0 2 -- Chart
1964 8 13 12 19.3 113.7 1004 0 2 -- Chart
1964 8 13 18 19.5 112.8 1004 0 2 -- Chart
1964 8 14 00 19.7 112.0 1004 0 2 -- Chart
1964 8 14 06 19.8 111.2 1003 0 2 -- Chart
1964 8 14 12 19.9 110.3 1004 0 2 -- Chart
1964 8 14 18 20.4 109.5 1004 0 2 -- Chart
1964 8 15 00 20.8 109.3 1004 0 2 -- Chart
1964 8 15 06 20.5 110.0 1003 0 2 -- Chart
1964 8 15 12 20.4 111.1 1002 0 2 -- Chart
1964 8 15 18 20.7 111.7 1000 0 2 -- Chart
1964 8 16 00 21.0 113.0 1000 0 2 -- Chart
1964 8 16 06 21.0 114.0 998 0 2 -- Chart
1964 8 16 12 21.5 115.0 998 0 2 -- Chart
1964 8 16 18 21.9 115.9 998 0 2 -- Chart
1964 8 17 00 22.5 117.4 998 0 2 -- Chart
1964 8 17 06 22.5 116.6 998 0 2 -- Chart
Japan Meteorological Agency Best Track Data | Correction Date : 1989-06-01
< Typhoon 196412 1964 Season Typhoon 196414 >

Help